KDVN/DVN METAR and TAF weather

Enter ICAO airport designator
Station Type Date Time Source
KDVN METAR 2020/02/20 23:52 UTC NOAA

KDVN 202352Z AUTO 31007KT 4SM HZ CLR M08/M16 A3073 RMK AO2 SLP417 T10781161 11050 21078 55001


Station Type Date Time Source
KDVN Decoded METAR 2020/02/20 23:52 UTC NOAA

DAVENPORT MUNICIPAL AIRPORT, IA, United States (KDVN) 41-37N 90-35W 228M
Feb 20, 2020 - 06:52 PM EST / 2020.02.20 2352 UTC
Wind: from the NW (310 degrees) at 8 MPH (7 KT):0
Visibility: 4 mile(s):0
Sky conditions: clear
Weather: haze
Temperature: 18.0 F (-7.8 C)
Windchill: 8 F (-13 C):1
Dew Point: 3.0 F (-16.1 C)
Relative Humidity: 51%
Pressure (altimeter): 30.73 in. Hg (1040 hPa)
Pressure tendency: 0.00 inches (0.1 hPa) lower than three hours ago
ob: KDVN 202352Z AUTO 31007KT 4SM HZ CLR M08/M16 A3073 RMK AO2 SLP417 T10781161 11050 21078 55001
cycle: 0

Station Type Date Time Source
KDVN TAF UTC NOAA

Error!

Example: see airport list